Time,TemperatureF,DewpointF,PressureIn,WindDirection,WindDirectionDegrees,WindSpeedMPH,WindSpeedGustMPH,Humidity,HourlyPrecipIn,Conditions,Clouds,dailyrainin,SoftwareType,DateUTC
2013-03-10 00:00:00,25.9,11.1,30.34,East,83,0.0,0.0,53,0.00,CLR,,0.24,WeatherDisplay:10.37,2013-03-10 05:00:00,
2013-03-10 00:01:00,25.9,11.1,30.34,East,83,0.0,0.0,53,0.00,RA,,0.00,WeatherDisplay:10.37,2013-03-10 05:01:00,
2013-03-10 00:05:00,25.7,10.9,30.34,East,83,0.0,0.0,53,0.00,RA,,0.00,WeatherDisplay:10.37,2013-03-10 05:05:00,
2013-03-10 00:10:00,25.5,10.7,30.34,East,83,0.0,0.0,53,0.00,RA,,0.00,WeatherDisplay:10.37,2013-03-10 05:10:00,
2013-03-10 00:15:00,25.9,11.1,30.34,East,83,0.0,0.0,53,0.00,CLR,,0.00,WeatherDisplay:10.37,2013-03-10 05:15:00,
2013-03-10 00:20:00,25.7,10.9,30.34,East,83,0.0,0.0,53,0.00,CLR,,0.00,WeatherDisplay:10.37,2013-03-10 05:20:00,
2013-03-10 00:25:00,25.9,11.1,30.34,East,83,0.0,0.0,53,0.00,CLR,,0.00,WeatherDisplay:10.37,2013-03-10 05:25:00,
2013-03-10 00:30:00,26.1,11.7,30.34,East,83,0.0,0.0,54,0.00,CLR,,0.00,WeatherDisplay:10.37,2013-03-10 05:30:00,
2013-03-10 00:35:00,26.1,11.7,30.34,East,83,0.0,0.0,54,0.00,CLR,,0.00,WeatherDisplay:10.37,2013-03-10 05:35:00,
2013-03-10 00:40:00,26.1,11.7,30.34,East,83,0.0,0.0,54,0.00,CLR,,0.00,WeatherDisplay:10.37,2013-03-10 05:40:00,
2013-03-10 00:45:00,26.2,11.8,30.34,East,83,0.0,0.0,54,0.00,CLR,,0.00,WeatherDisplay:10.37,2013-03-10 05:45:00,
2013-03-10 00:50:00,26.2,12.2,30.34,East,83,0.0,0.0,55,0.00,CLR,,0.00,WeatherDisplay:10.37,2013-03-10 05:50:00,
2013-03-10 00:55:00,26.2,12.2,30.34,East,83,0.0,0.0,55,0.00,CLR,,0.00,WeatherDisplay:10.37,2013-03-10 05:55:00,
2013-03-10 01:00:00,25.9,11.9,30.34,East,83,0.0,0.0,55,0.00,CLR,,0.00,WeatherDisplay:10.37,2013-03-10 06:00:00,
2013-03-10 01:05:00,25.7,11.7,30.34,East,83,0.0,0.0,55,0.00,CLR,,0.00,WeatherDisplay:10.37,2013-03-10 06:05:00,
2013-03-10 01:10:00,25.5,12.0,30.34,East,83,0.0,0.0,56,0.00,CLR,,0.00,WeatherDisplay:10.37,2013-03-10 06:10:00,
2013-03-10 01:15:00,25.3,11.8,30.34,East,83,0.0,0.0,56,0.00,CLR,,0.00,WeatherDisplay:10.37,2013-03-10 06:15:00,
2013-03-10 01:20:00,25.3,11.8,30.34,East,83,0.0,0.0,56,0.00,CLR,,0.00,WeatherDisplay:10.37,2013-03-10 06:20:00,
2013-03-10 01:25:00,25.5,12.0,30.37,East,83,0.0,0.0,56,0.00,CLR,,0.00,WeatherDisplay:10.37,2013-03-10 06:25:00,
2013-03-10 01:30:00,25.5,12.0,30.37,East,83,0.0,0.0,56,0.00,CLR,,0.00,WeatherDisplay:10.37,2013-03-10 06:30:00,
2013-03-10 01:35:00,25.5,12.0,30.37,East,83,0.0,0.0,56,0.00,CLR,,0.00,WeatherDisplay:10.37,2013-03-10 06:35:00,
2013-03-10 01:40:00,25.3,11.8,30.34,East,83,0.0,0.0,56,0.00,CLR,,0.00,WeatherDisplay:10.37,2013-03-10 06:40:00,
2013-03-10 01:45:00,25.3,12.2,30.34,East,83,0.0,0.0,57,0.00,CLR,,0.00,WeatherDisplay:10.37,2013-03-10 06:45:00,
2013-03-10 01:50:00,25.3,12.2,30.34,East,83,0.0,0.0,57,0.00,CLR,,0.00,WeatherDisplay:10.37,2013-03-10 06:50:00,
2013-03-10 01:55:00,25.3,11.8,30.34,East,83,0.0,0.0,56,0.00,CLR,,0.00,WeatherDisplay:10.37,2013-03-10 06:55:00,
2013-03-10 03:00:00,25.3,11.8,30.34,East,83,0.0,0.0,56,0.00,CLR,,0.00,WeatherDisplay:10.37,2013-03-10 07:00:00,
2013-03-10 03:05:00,25.2,11.6,30.34,East,83,0.0,0.0,56,0.00,CLR,,0.00,WeatherDisplay:10.37,2013-03-10 07:05:00,
2013-03-10 03:10:00,25.0,11.9,30.34,East,83,0.0,0.0,57,0.00,CLR,,0.00,WeatherDisplay:10.37,2013-03-10 07:10:00,
2013-03-10 03:15:00,25.0,11.9,30.34,East,83,0.0,0.0,57,0.00,CLR,,0.00,WeatherDisplay:10.37,2013-03-10 07:15:00,
2013-03-10 03:20:00,24.8,11.3,30.34,East,83,0.0,0.0,56,0.00,CLR,,0.00,WeatherDisplay:10.37,2013-03-10 07:20:00,
2013-03-10 03:25:00,24.6,11.5,30.34,East,83,0.0,0.0,57,0.00,CLR,,0.00,WeatherDisplay:10.37,2013-03-10 07:25:00,
2013-03-10 03:30:00,24.6,11.5,30.34,East,83,0.0,0.0,57,0.00,CLR,,0.00,WeatherDisplay:10.37,2013-03-10 07:30:00,
2013-03-10 03:35:00,24.4,11.4,30.34,East,83,0.0,0.0,57,0.00,CLR,,0.00,WeatherDisplay:10.37,2013-03-10 07:35:00,
2013-03-10 03:40:00,24.4,11.4,30.34,East,83,0.0,0.0,57,0.00,CLR,,0.00,WeatherDisplay:10.37,2013-03-10 07:40:00,
2013-03-10 03:45:00,24.4,10.6,30.34,East,83,0.0,0.0,55,0.00,CLR,,0.00,WeatherDisplay:10.37,2013-03-10 07:45:00,
2013-03-10 03:50:00,24.4,9.7,30.34,East,83,0.0,0.0,53,0.00,CLR,,0.00,WeatherDisplay:10.37,2013-03-10 07:50:00,
2013-03-10 03:55:00,24.4,9.3,30.34,East,83,0.0,0.0,52,0.00,CLR,,0.00,WeatherDisplay:10.37,2013-03-10 07:55:00,
2013-03-10 04:00:00,24.4,9.3,30.34,East,83,0.0,0.0,52,0.00,CLR,,0.00,WeatherDisplay:10.37,2013-03-10 08:00:00,
2013-03-10 04:05:00,24.3,9.1,30.34,East,83,0.0,0.0,52,0.00,CLR,,0.00,WeatherDisplay:10.37,2013-03-10 08:05:00,
2013-03-10 04:10:00,24.3,9.1,30.34,East,83,0.0,0.0,52,0.00,CLR,,0.00,WeatherDisplay:10.37,2013-03-10 08:10:00,
2013-03-10 04:15:00,24.1,9.0,30.34,East,83,0.0,0.0,52,0.00,CLR,,0.00,WeatherDisplay:10.37,2013-03-10 08:15:00,
2013-03-10 04:20:00,23.9,8.8,30.34,East,83,0.0,0.0,52,0.00,CLR,,0.00,WeatherDisplay:10.37,2013-03-10 08:20:00,
2013-03-10 04:25:00,23.7,8.2,30.34,East,83,0.0,0.0,51,0.00,CLR,,0.00,WeatherDisplay:10.37,2013-03-10 08:25:00,
2013-03-10 04:30:00,23.4,7.4,30.34,East,83,0.0,0.0,50,0.00,CLR,,0.00,WeatherDisplay:10.37,2013-03-10 08:30:00,
2013-03-10 04:35:00,23.7,7.8,30.34,East,83,0.0,0.0,50,0.00,CLR,,0.00,WeatherDisplay:10.37,2013-03-10 08:35:00,
2013-03-10 04:40:00,23.5,7.6,30.34,East,83,0.0,0.0,50,0.00,CLR,,0.00,WeatherDisplay:10.37,2013-03-10 08:40:00,
2013-03-10 04:45:00,23.2,6.8,30.34,East,83,0.0,0.0,49,0.00,CLR,,0.00,WeatherDisplay:10.37,2013-03-10 08:45:00,
2013-03-10 04:50:00,23.2,6.8,30.34,East,83,0.0,0.0,49,0.00,CLR,,0.00,WeatherDisplay:10.37,2013-03-10 08:50:00,
2013-03-10 04:55:00,23.2,7.3,30.34,East,83,0.0,0.0,50,0.00,CLR,,0.00,WeatherDisplay:10.37,2013-03-10 08:55:00,
2013-03-10 05:00:00,23.4,7.4,30.34,East,83,0.0,0.0,50,0.00,CLR,,0.00,WeatherDisplay:10.37,2013-03-10 09:00:00,
2013-03-10 05:05:00,23.4,7.4,30.34,East,83,0.0,0.0,50,0.00,CLR,,0.00,WeatherDisplay:10.37,2013-03-10 09:05:00,
2013-03-10 05:10:00,23.0,6.7,30.34,East,83,0.0,0.0,49,0.00,CLR,,0.00,WeatherDisplay:10.37,2013-03-10 09:10:00,
2013-03-10 05:15:00,22.6,6.3,30.34,East,83,0.0,0.0,49,0.00,CLR,,0.00,WeatherDisplay:10.37,2013-03-10 09:15:00,
2013-03-10 05:20:00,22.5,6.2,30.34,East,83,0.0,0.0,49,0.00,CLR,,0.00,WeatherDisplay:10.37,2013-03-10 09:20:00,
2013-03-10 05:25:00,22.3,6.0,30.37,East,83,0.0,0.0,49,0.00,CLR,,0.00,WeatherDisplay:10.37,2013-03-10 09:25:00,
2013-03-10 05:30:00,22.6,6.3,30.37,East,83,0.0,0.0,49,0.00,CLR,,0.00,WeatherDisplay:10.37,2013-03-10 09:30:00,
2013-03-10 05:35:00,22.8,6.9,30.37,East,83,0.0,0.0,50,0.00,CLR,,0.00,WeatherDisplay:10.37,2013-03-10 09:35:00,
2013-03-10 05:40:00,22.8,6.5,30.37,East,83,0.0,0.0,49,0.00,CLR,,0.00,WeatherDisplay:10.37,2013-03-10 09:40:00,
2013-03-10 05:45:00,22.5,5.7,30.37,East,83,0.0,0.0,48,0.00,CLR,,0.00,WeatherDisplay:10.37,2013-03-10 09:45:00,
2013-03-10 05:50:00,22.1,5.4,30.37,East,83,0.0,0.0,48,0.00,CLR,,0.00,WeatherDisplay:10.37,2013-03-10 09:50:00,
2013-03-10 05:55:00,21.7,5.5,30.37,East,83,0.0,0.0,49,0.00,CLR,,0.00,WeatherDisplay:10.37,2013-03-10 09:55:00,
2013-03-10 06:00:00,21.6,4.9,30.37,East,83,0.0,0.0,48,0.00,CLR,,0.00,WeatherDisplay:10.37,2013-03-10 10:00:00,
2013-03-10 06:05:00,21.4,4.2,30.37,East,83,0.0,0.0,47,0.00,CLR,,0.00,WeatherDisplay:10.37,2013-03-10 10:05:00,
2013-03-10 06:10:00,21.2,4.5,30.37,East,83,0.0,0.0,48,0.00,CLR,,0.00,WeatherDisplay:10.37,2013-03-10 10:10:00,
2013-03-10 06:15:00,21.4,4.7,30.37,East,83,0.0,0.0,48,0.00,CLR,,0.00,WeatherDisplay:10.37,2013-03-10 10:15:00,
2013-03-10 06:20:00,21.6,4.9,30.37,East,83,0.0,0.0,48,0.00,CLR,,0.00,WeatherDisplay:10.37,2013-03-10 10:20:00,
2013-03-10 06:25:00,21.7,5.0,30.37,East,83,0.0,0.0,48,0.00,CLR,,0.00,WeatherDisplay:10.37,2013-03-10 10:25:00,
2013-03-10 06:30:00,21.7,5.0,30.37,East,83,0.0,0.0,48,0.00,CLR,,0.00,WeatherDisplay:10.37,2013-03-10 10:30:00,
2013-03-10 06:35:00,21.6,4.9,30.37,East,83,0.0,0.0,48,0.00,CLR,,0.00,WeatherDisplay:10.37,2013-03-10 10:35:00,
2013-03-10 06:40:00,21.7,5.0,30.37,East,83,0.0,0.0,48,0.00,CLR,,0.00,WeatherDisplay:10.37,2013-03-10 10:40:00,
2013-03-10 06:45:00,21.7,5.0,30.37,East,83,0.0,0.0,48,0.00,CLR,,0.00,WeatherDisplay:10.37,2013-03-10 10:45:00,
2013-03-10 06:50:00,21.2,4.5,30.37,East,83,0.0,0.0,48,0.00,CLR,,0.00,WeatherDisplay:10.37,2013-03-10 10:50:00,
2013-03-10 06:55:00,21.2,4.5,30.37,East,83,0.0,0.0,48,0.00,CLR,,0.00,WeatherDisplay:10.37,2013-03-10 10:55:00,
2013-03-10 07:00:00,21.6,4.9,30.37,East,83,0.0,0.0,48,0.00,CLR,,0.00,WeatherDisplay:10.37,2013-03-10 11:00:00,
2013-03-10 07:05:00,21.4,4.7,30.37,East,83,0.0,0.0,48,0.00,CLR,,0.00,WeatherDisplay:10.37,2013-03-10 11:05:00,
2013-03-10 07:10:00,21.2,4.5,30.37,East,83,0.0,0.0,48,0.00,CLR,,0.00,WeatherDisplay:10.37,2013-03-10 11:10:00,
2013-03-10 07:15:00,21.4,4.7,30.37,East,83,2.3,0.0,48,0.00,CLR,,0.00,WeatherDisplay:10.37,2013-03-10 11:15:00,
2013-03-10 07:20:00,22.1,6.3,30.37,East,83,0.0,0.0,50,0.00,CLR,,0.00,WeatherDisplay:10.37,2013-03-10 11:20:00,
2013-03-10 07:25:00,22.5,6.6,30.37,East,83,0.0,0.0,50,0.00,CLR,,0.00,WeatherDisplay:10.37,2013-03-10 11:25:00,
2013-03-10 07:30:00,22.5,6.6,30.37,East,83,0.0,0.0,50,0.00,CLR,,0.00,WeatherDisplay:10.37,2013-03-10 11:30:00,
2013-03-10 07:35:00,22.3,6.4,30.37,East,83,2.3,2.3,50,0.00,CLR,,0.00,WeatherDisplay:10.37,2013-03-10 11:35:00,
2013-03-10 07:40:00,22.6,6.8,30.37,East,83,0.0,0.0,50,0.00,CLR,,0.00,WeatherDisplay:10.37,2013-03-10 11:40:00,
2013-03-10 07:45:00,23.7,9.1,30.37,East,83,0.0,0.0,53,0.00,CLR,,0.00,WeatherDisplay:10.37,2013-03-10 11:45:00,
2013-03-10 07:50:00,24.3,9.1,30.37,East,83,0.0,0.0,52,0.00,CLR,,0.00,WeatherDisplay:10.37,2013-03-10 11:50:00,
2013-03-10 07:55:00,24.8,9.6,30.37,East,83,0.0,0.0,52,0.00,CLR,,0.00,WeatherDisplay:10.37,2013-03-10 11:55:00,
2013-03-10 08:00:00,24.6,9.5,30.37,East,83,0.0,0.0,52,0.00,CLR,,0.00,WeatherDisplay:10.37,2013-03-10 12:00:00,
2013-03-10 08:05:00,24.4,9.3,30.37,East,83,0.0,0.0,52,0.00,CLR,,0.00,WeatherDisplay:10.37,2013-03-10 12:05:00,
2013-03-10 08:10:00,24.4,8.9,30.40,East,83,0.0,0.0,51,0.00,CLR,,0.00,WeatherDisplay:10.37,2013-03-10 12:10:00,
2013-03-10 08:15:00,24.4,8.9,30.40,East,83,0.0,0.0,51,0.00,CLR,,0.00,WeatherDisplay:10.37,2013-03-10 12:15:00,
2013-03-10 08:20:00,25.0,9.4,30.40,East,83,0.0,0.0,51,0.00,CLR,,0.00,WeatherDisplay:10.37,2013-03-10 12:20:00,
2013-03-10 08:25:00,25.3,10.1,30.40,East,83,0.0,0.0,52,0.00,CLR,,0.00,WeatherDisplay:10.37,2013-03-10 12:25:00,
2013-03-10 08:30:00,26.1,10.8,30.40,East,83,0.0,0.0,52,0.00,CLR,,0.00,WeatherDisplay:10.37,2013-03-10 12:30:00,
2013-03-10 08:35:00,26.4,11.2,30.40,East,83,0.0,0.0,52,0.00,CLR,,0.00,WeatherDisplay:10.37,2013-03-10 12:35:00,
2013-03-10 08:40:00,26.8,11.5,30.40,East,83,0.0,0.0,52,0.00,CLR,,0.00,WeatherDisplay:10.37,2013-03-10 12:40:00,
2013-03-10 08:46:00,27.9,12.5,30.40,NE,43,0.0,0.0,52,0.00,CLR,,0.00,WeatherDisplay:10.37,2013-03-10 12:46:00,
2013-03-10 08:51:00,28.8,13.8,30.40,East,83,0.0,0.0,53,0.00,CLR,,0.00,WeatherDisplay:10.37,2013-03-10 12:51:00,
2013-03-10 08:56:00,29.7,14.6,30.40,East,83,0.0,0.0,53,0.00,CLR,,0.00,WeatherDisplay:10.37,2013-03-10 12:56:00,
2013-03-10 09:01:00,30.9,15.8,30.40,East,83,0.0,0.0,53,0.00,CLR,,0.00,WeatherDisplay:10.37,2013-03-10 13:01:00,
2013-03-10 09:06:00,32.5,18.1,30.40,East,83,0.0,0.0,55,0.00,CLR,,0.00,WeatherDisplay:10.37,2013-03-10 13:06:00,
2013-03-10 09:11:00,33.6,19.6,30.40,East,83,0.0,0.0,56,0.00,CLR,,0.00,WeatherDisplay:10.37,2013-03-10 13:11:00,
2013-03-10 09:16:00,34.5,20.0,30.40,East,83,0.0,0.0,55,0.00,CLR,,0.00,WeatherDisplay:10.37,2013-03-10 13:16:00,
2013-03-10 09:21:00,34.3,18.5,30.40,East,83,0.0,0.0,52,0.00,CLR,,0.00,WeatherDisplay:10.37,2013-03-10 13:21:00,
2013-03-10 09:26:00,34.5,17.3,30.40,East,83,0.0,0.0,49,0.00,CLR,,0.00,WeatherDisplay:10.37,2013-03-10 13:26:00,
2013-03-10 09:31:00,34.9,15.1,30.40,East,83,0.0,0.0,44,0.00,CLR,,0.00,WeatherDisplay:10.37,2013-03-10 13:31:00,
2013-03-10 09:36:00,35.2,13.3,30.40,East,83,0.0,0.0,40,0.00,CLR,,0.00,WeatherDisplay:10.37,2013-03-10 13:36:00,
2013-03-10 09:41:00,36.5,10.7,30.40,East,83,0.0,0.0,34,0.00,CLR,,0.00,WeatherDisplay:10.37,2013-03-10 13:41:00,
2013-03-10 09:46:00,36.7,9.5,30.40,East,83,0.0,0.0,32,0.00,CLR,,0.00,WeatherDisplay:10.37,2013-03-10 13:46:00,
2013-03-10 09:51:00,36.9,9.7,30.40,ESE,119,0.0,0.0,32,0.00,CLR,,0.00,WeatherDisplay:10.37,2013-03-10 13:51:00,
2013-03-10 09:56:00,37.0,9.9,30.40,ESE,119,0.0,0.0,32,0.00,CLR,,0.00,WeatherDisplay:10.37,2013-03-10 13:56:00,
2013-03-10 10:01:00,37.4,9.5,30.40,East,96,0.0,0.0,31,0.00,CLR,,0.00,WeatherDisplay:10.37,2013-03-10 14:01:00,
2013-03-10 10:06:00,38.3,8.8,30.40,SSW,195,2.3,0.0,29,0.00,CLR,,0.00,WeatherDisplay:10.37,2013-03-10 14:06:00,
2013-03-10 10:11:00,39.9,9.4,30.40,ESE,107,2.3,2.3,28,0.00,CLR,,0.00,WeatherDisplay:10.37,2013-03-10 14:11:00,
2013-03-10 10:16:00,39.9,11.7,30.40,ESE,110,0.0,0.0,31,0.00,CLR,,0.00,WeatherDisplay:10.37,2013-03-10 14:16:00,
2013-03-10 10:21:00,41.5,10.8,30.40,NNE,24,3.5,0.0,28,0.00,CLR,,0.00,WeatherDisplay:10.37,2013-03-10 14:21:00,
2013-03-10 10:26:00,43.0,12.0,30.40,NE,53,3.5,3.5,28,0.00,CLR,,0.00,WeatherDisplay:10.37,2013-03-10 14:26:00,
2013-03-10 10:31:00,41.4,10.6,30.40,ESE,121,3.5,3.5,28,0.00,CLR,,0.00,WeatherDisplay:10.37,2013-03-10 14:31:00,
2013-03-10 10:36:00,40.5,9.9,30.40,SE,128,0.0,0.0,28,0.00,CLR,,0.00,WeatherDisplay:10.37,2013-03-10 14:36:00,
2013-03-10 10:41:00,42.3,11.4,30.40,NNE,27,3.5,3.5,28,0.00,CLR,,0.00,WeatherDisplay:10.37,2013-03-10 14:41:00,
2013-03-10 10:46:00,44.4,13.3,30.40,NNE,21,3.5,0.0,28,0.00,CLR,,0.00,WeatherDisplay:10.37,2013-03-10 14:46:00,
2013-03-10 10:51:00,45.1,13.1,30.40,East,95,3.5,3.5,27,0.00,CLR,,0.00,WeatherDisplay:10.37,2013-03-10 14:51:00,
2013-03-10 10:56:00,47.3,15.0,30.40,East,92,2.3,0.0,27,0.00,CLR,,0.00,WeatherDisplay:10.37,2013-03-10 14:56:00,
2013-03-10 11:01:00,45.7,13.6,30.40,East,95,3.6,3.6,27,0.00,CLR,,0.00,WeatherDisplay:10.37,2013-03-10 15:01:00,
2013-03-10 11:06:00,42.1,11.3,30.40,NNE,21,3.5,3.5,28,0.00,CLR,,0.00,WeatherDisplay:10.37,2013-03-10 15:06:00,
2013-03-10 11:11:00,40.3,9.7,30.40,ESE,102,2.7,0.0,28,0.00,CLR,,0.00,WeatherDisplay:10.37,2013-03-10 15:11:00,
2013-03-10 11:16:00,39.2,8.8,30.40,ESE,109,2.3,0.0,28,0.00,CLR,,0.00,WeatherDisplay:10.37,2013-03-10 15:16:00,
2013-03-10 11:21:00,39.9,9.4,30.40,ESE,110,3.5,3.5,28,0.00,CLR,,0.00,WeatherDisplay:10.37,2013-03-10 15:21:00,
2013-03-10 11:26:00,40.6,10.0,30.40,East,95,3.6,3.6,28,0.00,CLR,,0.00,WeatherDisplay:10.37,2013-03-10 15:26:00,
2013-03-10 11:31:00,40.3,9.7,30.40,ESE,117,2.3,0.0,28,0.00,CLR,,0.00,WeatherDisplay:10.37,2013-03-10 15:31:00,
2013-03-10 11:36:00,42.3,11.4,30.40,East,84,3.5,3.5,28,0.00,CLR,,0.00,WeatherDisplay:10.37,2013-03-10 15:36:00,
2013-03-10 11:41:00,42.1,11.3,30.37,ESE,122,2.3,0.0,28,0.00,CLR,,0.00,WeatherDisplay:10.37,2013-03-10 15:41:00,
2013-03-10 11:46:00,41.7,11.0,30.37,SSE,167,5.8,5.8,28,0.00,CLR,,0.00,WeatherDisplay:10.37,2013-03-10 15:46:00,
2013-03-10 11:51:00,40.8,10.2,30.37,SE,133,2.3,0.0,28,0.00,CLR,,0.00,WeatherDisplay:10.37,2013-03-10 15:51:00,
2013-03-10 11:56:00,41.2,10.5,30.37,North,357,0.0,0.0,28,0.00,CLR,,0.00,WeatherDisplay:10.37,2013-03-10 15:56:00,
2013-03-10 12:01:00,40.6,10.0,30.37,SE,143,3.5,3.5,28,0.00,CLR,,0.00,WeatherDisplay:10.37,2013-03-10 16:01:00,
2013-03-10 12:06:00,40.6,10.0,30.37,East,98,3.5,3.5,28,0.00,CLR,,0.00,WeatherDisplay:10.37,2013-03-10 16:06:00,
2013-03-10 12:11:00,40.8,10.2,30.37,East,88,0.0,0.0,28,0.00,CLR,,0.00,WeatherDisplay:10.37,2013-03-10 16:11:00,
2013-03-10 12:16:00,41.2,10.5,30.37,East,80,2.7,0.0,28,0.00,CLR,,0.00,WeatherDisplay:10.37,2013-03-10 16:16:00,
2013-03-10 12:21:00,41.4,10.6,30.37,ESE,114,4.5,4.5,28,0.00,CLR,,0.00,WeatherDisplay:10.37,2013-03-10 16:21:00,
2013-03-10 12:26:00,41.9,11.1,30.37,ENE,73,2.3,0.0,28,0.00,CLR,,0.00,WeatherDisplay:10.37,2013-03-10 16:26:00,
2013-03-10 12:31:00,44.1,13.0,30.37,East,84,3.5,3.5,28,0.00,CLR,,0.00,WeatherDisplay:10.37,2013-03-10 16:31:00,
2013-03-10 12:36:00,47.7,15.3,30.37,ESE,117,3.6,0.0,27,0.00,CLR,,0.00,WeatherDisplay:10.37,2013-03-10 16:36:00,
2013-03-10 12:41:00,50.5,16.9,30.37,NNE,22,3.5,3.5,26,0.00,CLR,,0.00,WeatherDisplay:10.37,2013-03-10 16:41:00,
2013-03-10 12:46:00,52.0,18.1,30.37,NE,41,0.0,0.0,26,0.00,CLR,,0.00,WeatherDisplay:10.37,2013-03-10 16:46:00,
2013-03-10 12:51:00,49.1,15.6,30.37,ESE,121,5.8,5.8,26,0.00,CLR,,0.00,WeatherDisplay:10.37,2013-03-10 16:51:00,
2013-03-10 12:56:00,46.9,14.6,30.37,SE,125,5.8,5.8,27,0.00,CLR,,0.00,WeatherDisplay:10.37,2013-03-10 16:56:00,
2013-03-10 13:01:00,49.5,15.9,30.37,ESE,111,4.0,4.0,26,0.00,CLR,,0.00,WeatherDisplay:10.37,2013-03-10 17:01:00,
2013-03-10 13:06:00,51.8,18.0,30.37,East,92,3.5,3.5,26,0.00,CLR,,0.00,WeatherDisplay:10.37,2013-03-10 17:06:00,
2013-03-10 13:11:00,52.2,18.3,30.37,East,97,3.5,3.5,26,0.00,CLR,,0.00,WeatherDisplay:10.37,2013-03-10 17:11:00,
2013-03-10 13:16:00,50.7,17.0,30.37,East,83,4.6,4.6,26,0.00,CLR,,0.00,WeatherDisplay:10.37,2013-03-10 17:16:00,
2013-03-10 13:21:00,48.0,15.6,30.37,ESE,115,5.8,5.8,27,0.00,CLR,,0.00,WeatherDisplay:10.37,2013-03-10 17:21:00,
2013-03-10 13:26:00,46.2,14.0,30.34,ESE,121,4.6,4.6,27,0.00,CLR,,0.00,WeatherDisplay:10.37,2013-03-10 17:26:00,
2013-03-10 13:31:00,46.9,14.6,30.34,SSE,163,4.0,4.0,27,0.00,CLR,,0.00,WeatherDisplay:10.37,2013-03-10 17:31:00,
2013-03-10 13:36:00,48.7,15.3,30.34,SE,140,3.5,3.6,26,0.00,CLR,,0.00,WeatherDisplay:10.37,2013-03-10 17:36:00,
2013-03-10 13:41:00,54.9,19.7,30.34,SSE,151,3.5,0.0,25,0.00,CLR,,0.00,WeatherDisplay:10.37,2013-03-10 17:41:00,
2013-03-10 13:46:00,56.3,22.7,30.34,NNW,333,3.6,3.6,27,0.00,CLR,,0.00,WeatherDisplay:10.37,2013-03-10 17:46:00,
2013-03-10 13:51:00,54.5,19.3,30.34,SE,124,5.8,5.8,25,0.04,RA,,0.04,WeatherDisplay:10.37,2013-03-10 17:51:00,
2013-03-10 13:56:00,50.9,17.2,30.34,East,81,3.5,3.6,26,0.04,RA,,0.04,WeatherDisplay:10.37,2013-03-10 17:56:00,
2013-03-10 14:01:00,55.8,20.4,30.34,South,190,5.8,5.8,25,0.04,,,0.04,WeatherDisplay:10.37,2013-03-10 18:01:00,
2013-03-10 14:06:00,50.4,16.7,30.34,SE,131,5.8,5.8,26,0.04,CLR,,0.04,WeatherDisplay:10.37,2013-03-10 18:06:00,
2013-03-10 14:11:00,45.5,13.4,30.34,South,173,3.5,3.6,27,0.04,CLR,,0.04,WeatherDisplay:10.37,2013-03-10 18:11:00,
2013-03-10 14:16:00,44.8,12.8,30.34,East,86,3.6,3.6,27,0.04,CLR,,0.04,WeatherDisplay:10.37,2013-03-10 18:16:00,
2013-03-10 14:21:00,44.1,13.0,30.34,South,190,3.5,0.0,28,0.04,CLR,,0.04,WeatherDisplay:10.37,2013-03-10 18:21:00,
2013-03-10 14:26:00,43.5,12.5,30.34,SSW,204,3.5,3.5,28,0.04,CLR,,0.04,WeatherDisplay:10.37,2013-03-10 18:26:00,
2013-03-10 14:31:00,43.3,12.4,30.34,SE,136,5.8,5.8,28,0.04,CLR,,0.04,WeatherDisplay:10.37,2013-03-10 18:31:00,
2013-03-10 14:36:00,43.2,12.2,30.34,East,88,4.0,4.0,28,0.04,CLR,,0.04,WeatherDisplay:10.37,2013-03-10 18:36:00,
2013-03-10 14:41:00,43.2,12.2,30.34,East,91,3.5,3.5,28,0.04,CLR,,0.04,WeatherDisplay:10.37,2013-03-10 18:41:00,
2013-03-10 14:46:00,43.3,12.4,30.34,ESE,117,5.8,5.8,28,0.04,CLR,,0.04,WeatherDisplay:10.37,2013-03-10 18:46:00,
2013-03-10 14:51:00,43.2,12.2,30.34,East,81,3.5,3.5,28,0.00,CLR,,0.04,WeatherDisplay:10.37,2013-03-10 18:51:00,
2013-03-10 14:56:00,43.3,12.4,30.34,SE,140,5.8,5.8,28,0.00,CLR,,0.04,WeatherDisplay:10.37,2013-03-10 18:56:00,
2013-03-10 15:01:00,44.1,13.0,30.34,South,169,4.6,4.6,28,0.00,CLR,,0.04,WeatherDisplay:10.37,2013-03-10 19:01:00,
2013-03-10 15:06:00,43.5,12.5,30.34,East,88,3.5,3.5,28,0.00,CLR,,0.04,WeatherDisplay:10.37,2013-03-10 19:06:00,
2013-03-10 15:11:00,43.2,12.2,30.31,South,184,5.8,5.8,28,0.00,CLR,,0.04,WeatherDisplay:10.37,2013-03-10 19:11:00,
2013-03-10 15:16:00,43.3,12.4,30.31,SE,144,3.5,3.5,28,0.00,CLR,,0.04,WeatherDisplay:10.37,2013-03-10 19:16:00,
2013-03-10 15:21:00,43.2,12.2,30.31,SE,135,5.8,5.8,28,0.00,CLR,,0.04,WeatherDisplay:10.37,2013-03-10 19:21:00,
2013-03-10 15:26:00,43.3,12.4,30.31,ESE,118,3.5,3.5,28,0.00,CLR,,0.04,WeatherDisplay:10.37,2013-03-10 19:26:00,
2013-03-10 15:31:00,44.4,13.3,30.31,SE,136,3.5,0.0,28,0.00,CLR,,0.04,WeatherDisplay:10.37,2013-03-10 19:31:00,
2013-03-10 15:36:00,45.0,12.9,30.31,East,94,3.5,3.5,27,0.00,CLR,,0.04,WeatherDisplay:10.37,2013-03-10 19:36:00,
2013-03-10 15:41:00,46.2,14.0,30.31,East,92,3.1,3.1,27,0.00,CLR,,0.04,WeatherDisplay:10.37,2013-03-10 19:41:00,
2013-03-10 15:46:00,46.8,14.5,30.31,ENE,68,2.3,0.0,27,0.00,CLR,,0.04,WeatherDisplay:10.37,2013-03-10 19:46:00,
2013-03-10 15:51:00,46.9,14.6,30.31,SSW,202,3.5,3.5,27,0.00,CLR,,0.04,WeatherDisplay:10.37,2013-03-10 19:51:00,
2013-03-10 15:56:00,48.0,15.6,30.31,East,94,2.3,2.3,27,0.00,CLR,,0.04,WeatherDisplay:10.37,2013-03-10 19:56:00,
2013-03-10 16:01:00,46.8,14.5,30.31,SE,146,3.6,3.6,27,0.00,CLR,,0.04,WeatherDisplay:10.37,2013-03-10 20:01:00,
2013-03-10 16:06:00,44.6,12.6,30.31,ESE,121,3.5,3.5,27,0.00,CLR,,0.04,WeatherDisplay:10.37,2013-03-10 20:06:00,
2013-03-10 16:11:00,43.9,12.8,30.31,SSW,203,3.5,0.0,28,0.04,RA,,0.08,WeatherDisplay:10.37,2013-03-10 20:11:00,
2013-03-10 16:16:00,45.9,13.7,30.31,ENE,73,3.5,3.5,27,0.04,RA,,0.08,WeatherDisplay:10.37,2013-03-10 20:16:00,
2013-03-10 16:22:00,44.6,12.6,30.31,South,179,3.5,3.5,27,0.04,,,0.08,WeatherDisplay:10.37,2013-03-10 20:22:00,
2013-03-10 16:27:00,44.2,13.1,30.31,ENE,74,3.5,0.0,28,0.04,CLR,,0.08,WeatherDisplay:10.37,2013-03-10 20:27:00,
2013-03-10 16:32:00,44.1,13.0,30.31,SE,141,3.5,0.0,28,0.04,CLR,,0.08,WeatherDisplay:10.37,2013-03-10 20:32:00,
2013-03-10 16:37:00,43.3,12.4,30.31,South,185,4.0,4.0,28,0.04,CLR,,0.08,WeatherDisplay:10.37,2013-03-10 20:37:00,
2013-03-10 16:42:00,43.2,12.2,30.31,SSE,147,3.5,0.0,28,0.04,CLR,,0.08,WeatherDisplay:10.37,2013-03-10 20:42:00,
2013-03-10 16:48:00,46.2,14.0,30.31,East,96,3.5,0.0,27,0.04,CLR,,0.08,WeatherDisplay:10.37,2013-03-10 20:48:00,
2013-03-10 16:53:00,45.5,13.4,30.31,SE,129,2.3,2.3,27,0.04,CLR,,0.08,WeatherDisplay:10.37,2013-03-10 20:53:00,
2013-03-10 16:58:00,45.0,12.9,30.31,ESE,109,3.6,3.6,27,0.04,CLR,,0.08,WeatherDisplay:10.37,2013-03-10 20:58:00,
2013-03-10 17:03:00,43.7,12.7,30.31,ESE,109,5.8,5.8,28,0.04,CLR,,0.08,WeatherDisplay:10.37,2013-03-10 21:03:00,
2013-03-10 17:08:00,45.7,13.6,30.31,SSE,148,3.5,3.5,27,0.04,CLR,,0.08,WeatherDisplay:10.37,2013-03-10 21:08:00,
2013-03-10 17:13:00,46.9,14.6,30.31,ESE,102,4.6,4.6,27,0.00,CLR,,0.08,WeatherDisplay:10.37,2013-03-10 21:13:00,
2013-03-10 17:19:00,44.8,12.8,30.31,East,95,3.5,3.5,27,0.00,CLR,,0.08,WeatherDisplay:10.37,2013-03-10 21:19:00,
2013-03-10 17:24:00,43.5,12.5,30.31,ESE,103,3.5,3.5,28,0.00,CLR,,0.08,WeatherDisplay:10.37,2013-03-10 21:24:00,
2013-03-10 17:29:00,46.2,14.0,30.31,ESE,114,3.5,3.5,27,0.00,CLR,,0.08,WeatherDisplay:10.37,2013-03-10 21:29:00,
2013-03-10 17:34:00,46.0,13.9,30.31,SE,145,3.5,3.5,27,0.00,CLR,,0.08,WeatherDisplay:10.37,2013-03-10 21:34:00,
2013-03-10 17:39:00,44.1,13.0,30.31,East,101,3.5,3.6,28,0.00,CLR,,0.08,WeatherDisplay:10.37,2013-03-10 21:39:00,
2013-03-10 17:44:00,43.5,12.5,30.31,East,93,3.5,3.5,28,0.00,CLR,,0.08,WeatherDisplay:10.37,2013-03-10 21:44:00,
2013-03-10 17:49:00,41.9,11.1,30.31,East,89,3.5,3.5,28,0.00,CLR,,0.08,WeatherDisplay:10.37,2013-03-10 21:49:00,
2013-03-10 17:54:00,40.3,9.7,30.31,ESE,118,3.5,3.5,28,0.00,CLR,,0.08,WeatherDisplay:10.37,2013-03-10 21:54:00,
2013-03-10 17:59:00,39.7,9.2,30.31,ESE,108,3.5,3.5,28,0.00,CLR,,0.08,WeatherDisplay:10.37,2013-03-10 21:59:00,
2013-03-10 18:04:00,39.4,8.9,30.31,SE,126,3.5,3.5,28,0.00,CLR,,0.08,WeatherDisplay:10.37,2013-03-10 22:04:00,
2013-03-10 18:09:00,38.7,9.1,30.31,ESE,115,2.3,2.3,29,0.00,CLR,,0.08,WeatherDisplay:10.37,2013-03-10 22:09:00,
2013-03-10 18:14:00,38.1,8.6,30.31,ESE,103,3.5,3.5,29,0.00,CLR,,0.08,WeatherDisplay:10.37,2013-03-10 22:14:00,
2013-03-10 18:19:00,37.8,8.3,30.31,East,92,3.5,3.5,29,0.00,CLR,,0.08,WeatherDisplay:10.37,2013-03-10 22:19:00,
2013-03-10 18:24:00,37.4,8.0,30.31,ESE,113,4.6,4.6,29,0.00,CLR,,0.08,WeatherDisplay:10.37,2013-03-10 22:24:00,
2013-03-10 18:29:00,37.2,7.8,30.31,ESE,109,3.5,3.5,29,0.00,CLR,,0.08,WeatherDisplay:10.37,2013-03-10 22:29:00,
2013-03-10 18:34:00,36.9,7.5,30.31,ESE,107,3.5,3.5,29,0.00,CLR,,0.08,WeatherDisplay:10.37,2013-03-10 22:34:00,
2013-03-10 18:39:00,36.7,7.4,30.31,ESE,120,3.6,3.6,29,0.00,CLR,,0.08,WeatherDisplay:10.37,2013-03-10 22:39:00,
2013-03-10 18:44:00,36.3,7.0,30.31,ESE,118,3.5,3.5,29,0.00,CLR,,0.08,WeatherDisplay:10.37,2013-03-10 22:44:00,
2013-03-10 18:49:00,36.0,6.7,30.31,ESE,111,3.5,0.0,29,0.00,CLR,,0.08,WeatherDisplay:10.37,2013-03-10 22:49:00,
2013-03-10 18:54:00,35.8,6.6,30.31,ESE,111,3.5,0.0,29,0.00,CLR,,0.08,WeatherDisplay:10.37,2013-03-10 22:54:00,
2013-03-10 18:59:00,35.6,6.4,30.31,ESE,116,3.5,3.5,29,0.00,CLR,,0.08,WeatherDisplay:10.37,2013-03-10 22:59:00,
2013-03-10 19:04:00,35.6,6.4,30.31,East,100,3.5,3.5,29,0.00,CLR,,0.08,WeatherDisplay:10.37,2013-03-10 23:04:00,
2013-03-10 19:09:00,35.4,7.0,30.31,ESE,117,2.7,0.0,30,0.00,CLR,,0.08,WeatherDisplay:10.37,2013-03-10 23:09:00,
2013-03-10 19:14:00,35.2,6.8,30.31,SSE,164,3.1,0.0,30,0.00,CLR,,0.08,WeatherDisplay:10.37,2013-03-10 23:14:00,
2013-03-10 19:19:00,35.1,8.1,30.31,SE,133,3.5,0.0,32,0.00,CLR,,0.08,WeatherDisplay:10.37,2013-03-10 23:19:00,
2013-03-10 19:24:00,34.9,8.0,30.31,ESE,123,3.6,0.0,32,0.00,CLR,,0.08,WeatherDisplay:10.37,2013-03-10 23:24:00,
2013-03-10 19:29:00,34.9,8.0,30.31,SE,142,2.3,0.0,32,0.00,CLR,,0.08,WeatherDisplay:10.37,2013-03-10 23:29:00,
2013-03-10 19:34:00,35.1,8.1,30.31,SE,132,3.5,0.0,32,0.00,CLR,,0.08,WeatherDisplay:10.37,2013-03-10 23:34:00,
2013-03-10 19:39:00,34.9,8.0,30.31,ENE,76,3.5,3.5,32,0.00,CLR,,0.08,WeatherDisplay:10.37,2013-03-10 23:39:00,
2013-03-10 19:44:00,34.5,7.6,30.31,East,100,2.3,2.3,32,0.00,CLR,,0.08,WeatherDisplay:10.37,2013-03-10 23:44:00,
2013-03-10 19:49:00,34.3,7.5,30.31,ESE,109,3.5,3.5,32,0.00,CLR,,0.08,WeatherDisplay:10.37,2013-03-10 23:49:00,
2013-03-10 19:54:00,34.2,7.3,30.31,East,100,2.3,2.3,32,0.00,CLR,,0.08,WeatherDisplay:10.37,2013-03-10 23:54:00,
2013-03-10 19:59:00,34.0,7.2,30.31,South,191,3.5,3.5,32,0.00,CLR,,0.08,WeatherDisplay:10.37,2013-03-10 23:59:00,
2013-03-10 20:04:00,33.8,7.0,30.31,SSW,203,4.6,4.6,32,0.00,CLR,,0.08,WeatherDisplay:10.37,2013-03-11 00:04:00,
2013-03-10 20:09:00,33.6,7.5,30.31,SSW,203,2.3,0.0,33,0.00,CLR,,0.08,WeatherDisplay:10.37,2013-03-11 00:09:00,
2013-03-10 20:14:00,33.4,8.7,30.31,SSE,164,2.3,0.0,35,0.00,CLR,,0.08,WeatherDisplay:10.37,2013-03-11 00:14:00,
2013-03-10 20:19:00,33.4,7.4,30.31,SSE,164,0.0,0.0,33,0.00,CLR,,0.08,WeatherDisplay:10.37,2013-03-11 00:19:00,
2013-03-10 20:24:00,33.6,8.8,30.31,SE,126,2.7,0.0,35,0.00,CLR,,0.08,WeatherDisplay:10.37,2013-03-11 00:24:00,
2013-03-10 20:29:00,34.0,9.2,30.31,SE,128,0.0,0.0,35,0.00,CLR,,0.08,WeatherDisplay:10.37,2013-03-11 00:29:00,
2013-03-10 20:34:00,34.0,9.2,30.31,SE,126,3.5,3.6,35,0.00,CLR,,0.08,WeatherDisplay:10.37,2013-03-11 00:34:00,
2013-03-10 20:39:00,34.2,9.3,30.31,ESE,114,2.3,0.0,35,0.00,CLR,,0.08,WeatherDisplay:10.37,2013-03-11 00:39:00,
2013-03-10 20:44:00,34.2,7.3,30.31,ESE,114,0.0,0.0,32,0.00,CLR,,0.08,WeatherDisplay:10.37,2013-03-11 00:44:00,
2013-03-10 20:49:00,34.2,7.3,30.31,South,177,2.3,0.0,32,0.00,CLR,,0.08,WeatherDisplay:10.37,2013-03-11 00:49:00,
2013-03-10 20:54:00,34.0,7.2,30.31,South,177,2.3,0.0,32,0.00,CLR,,0.08,WeatherDisplay:10.37,2013-03-11 00:54:00,
2013-03-10 20:59:00,34.0,9.2,30.31,South,177,0.0,0.0,35,0.00,CLR,,0.08,WeatherDisplay:10.37,2013-03-11 00:59:00,
2013-03-10 21:04:00,34.0,9.2,30.31,SSE,161,3.5,3.5,35,0.00,CLR,,0.08,WeatherDisplay:10.37,2013-03-11 01:04:00,
2013-03-10 21:09:00,33.8,9.0,30.31,SSE,161,0.0,0.0,35,0.00,CLR,,0.08,WeatherDisplay:10.37,2013-03-11 01:09:00,
2013-03-10 21:14:00,33.8,9.0,30.31,SSE,161,0.0,0.0,35,0.00,CLR,,0.08,WeatherDisplay:10.37,2013-03-11 01:14:00,
2013-03-10 21:19:00,33.8,9.0,30.31,SSE,161,2.3,0.0,35,0.00,CLR,,0.08,WeatherDisplay:10.37,2013-03-11 01:19:00,
2013-03-10 21:25:00,33.8,9.0,30.31,South,179,3.5,0.0,35,0.00,CLR,,0.08,WeatherDisplay:10.37,2013-03-11 01:25:00,
2013-03-10 21:30:00,34.0,9.2,30.31,SSW,209,2.3,0.0,35,0.00,CLR,,0.08,WeatherDisplay:10.37,2013-03-11 01:30:00,
2013-03-10 21:35:00,34.0,9.2,30.31,South,186,5.8,5.8,35,0.00,CLR,,0.08,WeatherDisplay:10.37,2013-03-11 01:35:00,
2013-03-10 21:40:00,34.2,9.3,30.31,SSE,157,0.0,0.0,35,0.00,CLR,,0.08,WeatherDisplay:10.37,2013-03-11 01:40:00,
2013-03-10 21:45:00,34.2,9.3,30.31,SE,145,0.0,0.0,35,0.00,CLR,,0.08,WeatherDisplay:10.37,2013-03-11 01:45:00,
2013-03-10 21:50:00,34.2,9.3,30.31,SSE,159,3.5,3.5,35,0.00,CLR,,0.08,WeatherDisplay:10.37,2013-03-11 01:50:00,
2013-03-10 21:55:00,34.2,9.3,30.31,SSE,159,0.0,0.0,35,0.00,CLR,,0.08,WeatherDisplay:10.37,2013-03-11 01:55:00,
2013-03-10 22:00:00,34.0,9.2,30.31,SSE,159,0.0,0.0,35,0.00,CLR,,0.08,WeatherDisplay:10.37,2013-03-11 02:00:00,
2013-03-10 22:05:00,34.2,9.3,30.31,ESE,116,2.3,0.0,35,0.00,CLR,,0.08,WeatherDisplay:10.37,2013-03-11 02:05:00,
2013-03-10 22:10:00,34.2,9.3,30.28,ESE,116,2.7,2.7,35,0.00,CLR,,0.08,WeatherDisplay:10.37,2013-03-11 02:10:00,
2013-03-10 22:15:00,34.2,9.3,30.28,ESE,116,0.0,0.0,35,0.00,CLR,,0.08,WeatherDisplay:10.37,2013-03-11 02:15:00,
2013-03-10 22:20:00,34.2,10.6,30.28,SE,131,0.0,0.0,37,0.00,CLR,,0.08,WeatherDisplay:10.37,2013-03-11 02:20:00,
2013-03-10 22:25:00,34.2,9.3,30.28,SE,131,0.0,0.0,35,0.00,CLR,,0.08,WeatherDisplay:10.37,2013-03-11 02:25:00,
2013-03-10 22:30:00,34.3,10.7,30.28,SE,131,0.0,0.0,37,0.00,CLR,,0.08,WeatherDisplay:10.37,2013-03-11 02:30:00,
2013-03-10 22:35:00,34.3,10.7,30.28,SE,137,0.0,0.0,37,0.00,CLR,,0.08,WeatherDisplay:10.37,2013-03-11 02:35:00,
2013-03-10 22:40:00,34.3,10.7,30.28,ESE,105,0.0,0.0,37,0.00,CLR,,0.08,WeatherDisplay:10.37,2013-03-11 02:40:00,
2013-03-10 22:45:00,34.9,11.2,30.28,SW,216,2.3,0.0,37,0.00,CLR,,0.08,WeatherDisplay:10.37,2013-03-11 02:45:00,
2013-03-10 22:50:00,34.7,9.8,30.28,SW,216,0.0,0.0,35,0.00,CLR,,0.08,WeatherDisplay:10.37,2013-03-11 02:50:00,
2013-03-10 22:55:00,34.5,10.9,30.31,South,181,2.7,2.7,37,0.00,CLR,,0.08,WeatherDisplay:10.37,2013-03-11 02:55:00,
2013-03-10 23:00:00,34.3,10.7,30.31,South,181,0.0,0.0,37,0.00,CLR,,0.08,WeatherDisplay:10.37,2013-03-11 03:00:00,
2013-03-10 23:05:00,34.5,10.9,30.31,WSW,250,0.0,0.0,37,0.00,CLR,,0.08,WeatherDisplay:10.37,2013-03-11 03:05:00,
2013-03-10 23:10:00,34.3,10.7,30.31,WSW,250,0.0,0.0,37,0.00,CLR,,0.08,WeatherDisplay:10.37,2013-03-11 03:10:00,
2013-03-10 23:15:00,34.3,10.7,30.31,WSW,250,0.0,0.0,37,0.00,CLR,,0.08,WeatherDisplay:10.37,2013-03-11 03:15:00,
2013-03-10 23:20:00,34.3,12.5,30.31,WSW,250,3.5,3.5,40,0.00,CLR,,0.08,WeatherDisplay:10.37,2013-03-11 03:20:00,
2013-03-10 23:25:00,34.3,12.5,30.28,East,96,2.3,0.0,40,0.00,CLR,,0.08,WeatherDisplay:10.37,2013-03-11 03:25:00,
2013-03-10 23:30:00,34.2,12.3,30.28,SE,131,3.5,3.5,40,0.00,CLR,,0.08,WeatherDisplay:10.37,2013-03-11 03:30:00,
2013-03-10 23:35:00,34.0,12.2,30.28,SE,133,0.0,0.0,40,0.00,CLR,,0.08,WeatherDisplay:10.37,2013-03-11 03:35:00,
2013-03-10 23:40:00,34.0,12.2,30.28,SE,133,0.0,0.0,40,0.00,CLR,,0.08,WeatherDisplay:10.37,2013-03-11 03:40:00,
2013-03-10 23:45:00,33.8,12.0,30.28,SE,133,0.0,0.0,40,0.00,CLR,,0.08,WeatherDisplay:10.37,2013-03-11 03:45:00,
2013-03-10 23:50:00,33.8,12.0,30.28,SE,133,0.0,0.0,40,0.00,CLR,,0.08,WeatherDisplay:10.37,2013-03-11 03:50:00,
2013-03-10 23:55:00,33.6,12.4,30.28,SE,142,3.5,0.0,41,0.00,CLR,,0.08,WeatherDisplay:10.37,2013-03-11 03:55:00,